sensor_id;sensor_type;location;lat;lon;timestamp;P1;durP1;ratioP1;P2;durP2;ratioP2
56991;SDS011;42885;49.754;18.636;2023-05-07T00:00:59;18.48;;;13.62;;
56991;SDS011;42885;49.754;18.636;2023-05-07T00:03:30;18.42;;;14.03;;
56991;SDS011;42885;49.754;18.636;2023-05-07T00:06:01;20.70;;;14.20;;
56991;SDS011;42885;49.754;18.636;2023-05-07T00:08:32;16.77;;;12.68;;
56991;SDS011;42885;49.754;18.636;2023-05-07T00:11:03;15.37;;;12.80;;
56991;SDS011;42885;49.754;18.636;2023-05-07T00:13:33;16.17;;;12.37;;
56991;SDS011;42885;49.754;18.636;2023-05-07T00:16:04;13.95;;;11.40;;
56991;SDS011;42885;49.754;18.636;2023-05-07T00:18:36;14.76;;;11.70;;
56991;SDS011;42885;49.754;18.636;2023-05-07T00:21:06;16.40;;;12.65;;
56991;SDS011;42885;49.754;18.636;2023-05-07T00:23:37;13.70;;;11.93;;
56991;SDS011;42885;49.754;18.636;2023-05-07T00:26:08;14.87;;;11.30;;
56991;SDS011;42885;49.754;18.636;2023-05-07T00:28:39;13.30;;;11.12;;
56991;SDS011;42885;49.754;18.636;2023-05-07T00:31:10;15.63;;;11.40;;
56991;SDS011;42885;49.754;18.636;2023-05-07T00:33:41;13.27;;;10.87;;
56991;SDS011;42885;49.754;18.636;2023-05-07T00:36:11;15.75;;;11.10;;
56991;SDS011;42885;49.754;18.636;2023-05-07T00:38:42;14.73;;;10.98;;
56991;SDS011;42885;49.754;18.636;2023-05-07T00:41:13;13.65;;;11.60;;
56991;SDS011;42885;49.754;18.636;2023-05-07T00:43:44;13.10;;;11.15;;
56991;SDS011;42885;49.754;18.636;2023-05-07T00:46:15;17.60;;;11.97;;
56991;SDS011;42885;49.754;18.636;2023-05-07T00:48:46;17.83;;;11.60;;
56991;SDS011;42885;49.754;18.636;2023-05-07T00:51:17;15.43;;;12.43;;
56991;SDS011;42885;49.754;18.636;2023-05-07T00:53:49;14.03;;;11.40;;
56991;SDS011;42885;49.754;18.636;2023-05-07T00:56:21;14.93;;;12.03;;
56991;SDS011;42885;49.754;18.636;2023-05-07T00:58:52;13.80;;;12.23;;
56991;SDS011;42885;49.754;18.636;2023-05-07T01:01:23;15.03;;;12.15;;
56991;SDS011;42885;49.754;18.636;2023-05-07T01:03:55;15.18;;;12.15;;
56991;SDS011;42885;49.754;18.636;2023-05-07T01:06:26;13.53;;;11.65;;
56991;SDS011;42885;49.754;18.636;2023-05-07T01:08:59;14.83;;;11.48;;
56991;SDS011;42885;49.754;18.636;2023-05-07T01:11:32;15.48;;;11.90;;
56991;SDS011;42885;49.754;18.636;2023-05-07T01:14:03;14.90;;;12.03;;
56991;SDS011;42885;49.754;18.636;2023-05-07T01:16:35;14.45;;;12.73;;
56991;SDS011;42885;49.754;18.636;2023-05-07T01:19:07;16.65;;;13.20;;
56991;SDS011;42885;49.754;18.636;2023-05-07T01:24:11;15.90;;;13.35;;
56991;SDS011;42885;49.754;18.636;2023-05-07T01:26:43;17.87;;;13.32;;
56991;SDS011;42885;49.754;18.636;2023-05-07T01:29:15;18.05;;;14.00;;
56991;SDS011;42885;49.754;18.636;2023-05-07T01:31:47;19.50;;;13.93;;
56991;SDS011;42885;49.754;18.636;2023-05-07T01:34:20;17.30;;;14.03;;
56991;SDS011;42885;49.754;18.636;2023-05-07T01:36:53;19.43;;;14.23;;
56991;SDS011;42885;49.754;18.636;2023-05-07T01:39:27;22.27;;;14.85;;
56991;SDS011;42885;49.754;18.636;2023-05-07T01:41:58;19.82;;;14.63;;
56991;SDS011;42885;49.754;18.636;2023-05-07T01:44:30;16.02;;;14.00;;
56991;SDS011;42885;49.754;18.636;2023-05-07T01:47:01;17.73;;;15.03;;
56991;SDS011;42885;49.754;18.636;2023-05-07T01:49:32;17.55;;;14.28;;
56991;SDS011;42885;49.754;18.636;2023-05-07T01:52:03;16.93;;;14.00;;
56991;SDS011;42885;49.754;18.636;2023-05-07T01:54:36;16.80;;;13.83;;
56991;SDS011;42885;49.754;18.636;2023-05-07T01:57:07;19.77;;;14.58;;
56991;SDS011;42885;49.754;18.636;2023-05-07T01:59:38;20.10;;;15.28;;
56991;SDS011;42885;49.754;18.636;2023-05-07T02:02:14;18.70;;;14.85;;
56991;SDS011;42885;49.754;18.636;2023-05-07T02:04:42;17.10;;;14.63;;
56991;SDS011;42885;49.754;18.636;2023-05-07T02:07:14;17.87;;;14.43;;
56991;SDS011;42885;49.754;18.636;2023-05-07T02:09:44;18.82;;;15.13;;
56991;SDS011;42885;49.754;18.636;2023-05-07T02:12:15;16.35;;;14.10;;
56991;SDS011;42885;49.754;18.636;2023-05-07T02:14:46;20.77;;;14.60;;
56991;SDS011;42885;49.754;18.636;2023-05-07T02:17:17;16.17;;;13.43;;
56991;SDS011;42885;49.754;18.636;2023-05-07T02:19:48;15.90;;;13.75;;
56991;SDS011;42885;49.754;18.636;2023-05-07T02:22:19;20.57;;;13.83;;
56991;SDS011;42885;49.754;18.636;2023-05-07T02:24:50;18.67;;;14.30;;
56991;SDS011;42885;49.754;18.636;2023-05-07T02:27:21;18.92;;;14.60;;
56991;SDS011;42885;49.754;18.636;2023-05-07T02:29:52;17.03;;;13.97;;
56991;SDS011;42885;49.754;18.636;2023-05-07T02:32:23;19.07;;;14.80;;
56991;SDS011;42885;49.754;18.636;2023-05-07T02:34:53;16.90;;;13.80;;
56991;SDS011;42885;49.754;18.636;2023-05-07T02:37:24;20.15;;;14.63;;
56991;SDS011;42885;49.754;18.636;2023-05-07T02:39:55;16.40;;;12.98;;
56991;SDS011;42885;49.754;18.636;2023-05-07T02:42:26;15.55;;;13.62;;
56991;SDS011;42885;49.754;18.636;2023-05-07T02:44:57;17.35;;;13.48;;
56991;SDS011;42885;49.754;18.636;2023-05-07T02:47:28;18.90;;;13.80;;
56991;SDS011;42885;49.754;18.636;2023-05-07T02:50:00;17.55;;;14.28;;
56991;SDS011;42885;49.754;18.636;2023-05-07T02:52:31;17.25;;;13.90;;
56991;SDS011;42885;49.754;18.636;2023-05-07T02:55:02;18.62;;;15.08;;
56991;SDS011;42885;49.754;18.636;2023-05-07T02:57:33;17.12;;;14.35;;
56991;SDS011;42885;49.754;18.636;2023-05-07T03:00:10;17.55;;;13.98;;
56991;SDS011;42885;49.754;18.636;2023-05-07T03:02:45;18.15;;;14.45;;
56991;SDS011;42885;49.754;18.636;2023-05-07T03:05:16;18.62;;;14.87;;
56991;SDS011;42885;49.754;18.636;2023-05-07T03:07:46;17.98;;;14.55;;
56991;SDS011;42885;49.754;18.636;2023-05-07T03:10:17;16.87;;;14.30;;
56991;SDS011;42885;49.754;18.636;2023-05-07T03:12:48;19.27;;;14.20;;
56991;SDS011;42885;49.754;18.636;2023-05-07T03:15:20;21.02;;;14.68;;
56991;SDS011;42885;49.754;18.636;2023-05-07T03:17:51;22.23;;;14.80;;
56991;SDS011;42885;49.754;18.636;2023-05-07T03:20:22;22.22;;;15.70;;
56991;SDS011;42885;49.754;18.636;2023-05-07T03:22:52;19.90;;;15.98;;
56991;SDS011;42885;49.754;18.636;2023-05-07T03:25:23;18.37;;;15.23;;
56991;SDS011;42885;49.754;18.636;2023-05-07T03:27:54;17.37;;;14.97;;
56991;SDS011;42885;49.754;18.636;2023-05-07T03:30:27;18.07;;;14.85;;
56991;SDS011;42885;49.754;18.636;2023-05-07T03:32:58;19.17;;;14.93;;
56991;SDS011;42885;49.754;18.636;2023-05-07T03:35:29;20.27;;;14.55;;
56991;SDS011;42885;49.754;18.636;2023-05-07T03:38:01;21.07;;;15.58;;
56991;SDS011;42885;49.754;18.636;2023-05-07T03:43:04;20.85;;;15.15;;
56991;SDS011;42885;49.754;18.636;2023-05-07T03:45:36;21.62;;;15.55;;
56991;SDS011;42885;49.754;18.636;2023-05-07T03:48:09;20.97;;;15.58;;
56991;SDS011;42885;49.754;18.636;2023-05-07T03:50:40;20.82;;;16.15;;
56991;SDS011;42885;49.754;18.636;2023-05-07T03:53:11;21.50;;;16.67;;
56991;SDS011;42885;49.754;18.636;2023-05-07T03:55:42;21.55;;;14.65;;
56991;SDS011;42885;49.754;18.636;2023-05-07T03:58:13;22.05;;;16.65;;
56991;SDS011;42885;49.754;18.636;2023-05-07T04:00:44;22.15;;;16.12;;
56991;SDS011;42885;49.754;18.636;2023-05-07T04:03:17;22.55;;;15.83;;
56991;SDS011;42885;49.754;18.636;2023-05-07T04:05:48;22.93;;;17.02;;
56991;SDS011;42885;49.754;18.636;2023-05-07T04:08:19;22.87;;;16.50;;
56991;SDS011;42885;49.754;18.636;2023-05-07T04:10:55;25.60;;;17.30;;
56991;SDS011;42885;49.754;18.636;2023-05-07T04:13:27;23.20;;;16.90;;
56991;SDS011;42885;49.754;18.636;2023-05-07T04:16:01;24.13;;;16.37;;
56991;SDS011;42885;49.754;18.636;2023-05-07T04:18:33;24.80;;;17.70;;
56991;SDS011;42885;49.754;18.636;2023-05-07T04:21:04;24.90;;;16.75;;
56991;SDS011;42885;49.754;18.636;2023-05-07T04:23:37;26.05;;;16.40;;
56991;SDS011;42885;49.754;18.636;2023-05-07T04:26:09;23.55;;;17.35;;
56991;SDS011;42885;49.754;18.636;2023-05-07T04:28:42;23.33;;;17.00;;
56991;SDS011;42885;49.754;18.636;2023-05-07T04:31:13;25.97;;;17.42;;
56991;SDS011;42885;49.754;18.636;2023-05-07T04:33:45;28.10;;;18.60;;
56991;SDS011;42885;49.754;18.636;2023-05-07T04:36:17;25.02;;;17.90;;
56991;SDS011;42885;49.754;18.636;2023-05-07T04:38:49;26.60;;;19.60;;
56991;SDS011;42885;49.754;18.636;2023-05-07T04:41:21;29.67;;;18.40;;
56991;SDS011;42885;49.754;18.636;2023-05-07T04:43:51;28.00;;;19.52;;
56991;SDS011;42885;49.754;18.636;2023-05-07T04:46:24;27.37;;;19.80;;
56991;SDS011;42885;49.754;18.636;2023-05-07T04:48:55;26.65;;;18.57;;
56991;SDS011;42885;49.754;18.636;2023-05-07T04:51:26;26.33;;;19.45;;
56991;SDS011;42885;49.754;18.636;2023-05-07T04:53:57;29.35;;;21.02;;
56991;SDS011;42885;49.754;18.636;2023-05-07T04:56:29;28.23;;;20.52;;
56991;SDS011;42885;49.754;18.636;2023-05-07T04:59:01;29.60;;;20.55;;
56991;SDS011;42885;49.754;18.636;2023-05-07T05:01:32;30.27;;;20.72;;
56991;SDS011;42885;49.754;18.636;2023-05-07T05:04:04;25.97;;;18.90;;
56991;SDS011;42885;49.754;18.636;2023-05-07T05:06:34;29.67;;;21.35;;
56991;SDS011;42885;49.754;18.636;2023-05-07T05:09:06;33.05;;;21.02;;
56991;SDS011;42885;49.754;18.636;2023-05-07T05:11:36;26.20;;;19.23;;
56991;SDS011;42885;49.754;18.636;2023-05-07T05:14:08;28.67;;;19.37;;
56991;SDS011;42885;49.754;18.636;2023-05-07T05:16:39;32.13;;;19.92;;
56991;SDS011;42885;49.754;18.636;2023-05-07T05:19:10;28.00;;;20.75;;
56991;SDS011;42885;49.754;18.636;2023-05-07T05:21:41;27.07;;;20.70;;
56991;SDS011;42885;49.754;18.636;2023-05-07T05:24:12;29.00;;;20.90;;
56991;SDS011;42885;49.754;18.636;2023-05-07T05:26:44;27.95;;;21.42;;
56991;SDS011;42885;49.754;18.636;2023-05-07T05:29:14;31.55;;;22.52;;
56991;SDS011;42885;49.754;18.636;2023-05-07T05:31:45;30.65;;;22.65;;
56991;SDS011;42885;49.754;18.636;2023-05-07T05:34:16;37.30;;;25.25;;
56991;SDS011;42885;49.754;18.636;2023-05-07T05:36:48;34.13;;;24.87;;
56991;SDS011;42885;49.754;18.636;2023-05-07T05:39:19;40.48;;;27.77;;
56991;SDS011;42885;49.754;18.636;2023-05-07T05:41:51;44.73;;;29.48;;
56991;SDS011;42885;49.754;18.636;2023-05-07T05:44:23;38.40;;;28.73;;
56991;SDS011;42885;49.754;18.636;2023-05-07T05:46:54;39.03;;;25.73;;
56991;SDS011;42885;49.754;18.636;2023-05-07T05:49:26;40.43;;;26.83;;
56991;SDS011;42885;49.754;18.636;2023-05-07T05:51:57;39.55;;;27.37;;
56991;SDS011;42885;49.754;18.636;2023-05-07T05:54:28;41.15;;;27.05;;
56991;SDS011;42885;49.754;18.636;2023-05-07T05:56:59;34.67;;;25.45;;
56991;SDS011;42885;49.754;18.636;2023-05-07T05:59:31;38.60;;;26.27;;
56991;SDS011;42885;49.754;18.636;2023-05-07T06:02:02;42.27;;;27.95;;
56991;SDS011;42885;49.754;18.636;2023-05-07T06:04:34;37.80;;;26.10;;
56991;SDS011;42885;49.754;18.636;2023-05-07T06:09:35;40.12;;;27.20;;
56991;SDS011;42885;49.754;18.636;2023-05-07T06:12:24;38.23;;;26.35;;
56991;SDS011;42885;49.754;18.636;2023-05-07T06:15:14;37.50;;;25.72;;
56991;SDS011;42885;49.754;18.636;2023-05-07T06:18:04;38.80;;;25.65;;
56991;SDS011;42885;49.754;18.636;2023-05-07T06:20:54;34.10;;;25.10;;
56991;SDS011;42885;49.754;18.636;2023-05-07T06:23:44;32.42;;;24.40;;
56991;SDS011;42885;49.754;18.636;2023-05-07T06:26:33;32.45;;;24.45;;
56991;SDS011;42885;49.754;18.636;2023-05-07T06:29:22;33.60;;;23.47;;
56991;SDS011;42885;49.754;18.636;2023-05-07T06:32:13;29.48;;;22.90;;
56991;SDS011;42885;49.754;18.636;2023-05-07T06:35:05;28.13;;;19.87;;
56991;SDS011;42885;49.754;18.636;2023-05-07T06:37:56;25.55;;;18.52;;
56991;SDS011;42885;49.754;18.636;2023-05-07T06:40:48;21.57;;;16.15;;
56991;SDS011;42885;49.754;18.636;2023-05-07T06:43:37;16.55;;;12.18;;
56991;SDS011;42885;49.754;18.636;2023-05-07T06:46:44;13.32;;;10.90;;
56991;SDS011;42885;49.754;18.636;2023-05-07T06:49:33;15.25;;;11.73;;
56991;SDS011;42885;49.754;18.636;2023-05-07T06:52:22;14.05;;;11.20;;
56991;SDS011;42885;49.754;18.636;2023-05-07T06:55:12;17.50;;;12.90;;
56991;SDS011;42885;49.754;18.636;2023-05-07T06:58:02;17.35;;;13.68;;
56991;SDS011;42885;49.754;18.636;2023-05-07T07:00:52;15.90;;;12.87;;
56991;SDS011;42885;49.754;18.636;2023-05-07T07:03:41;16.43;;;12.70;;
56991;SDS011;42885;49.754;18.636;2023-05-07T07:06:30;14.53;;;11.28;;
56991;SDS011;42885;49.754;18.636;2023-05-07T07:09:20;15.68;;;12.20;;
56991;SDS011;42885;49.754;18.636;2023-05-07T07:12:09;16.50;;;12.78;;
56991;SDS011;42885;49.754;18.636;2023-05-07T07:14:59;20.25;;;14.87;;
56991;SDS011;42885;49.754;18.636;2023-05-07T07:17:49;15.63;;;13.28;;
56991;SDS011;42885;49.754;18.636;2023-05-07T07:20:38;17.20;;;12.35;;
56991;SDS011;42885;49.754;18.636;2023-05-07T07:23:28;16.80;;;12.53;;
56991;SDS011;42885;49.754;18.636;2023-05-07T07:26:17;15.13;;;11.88;;
56991;SDS011;42885;49.754;18.636;2023-05-07T07:29:07;16.15;;;12.80;;
56991;SDS011;42885;49.754;18.636;2023-05-07T07:31:56;14.73;;;12.15;;
56991;SDS011;42885;49.754;18.636;2023-05-07T07:34:45;16.12;;;12.63;;
56991;SDS011;42885;49.754;18.636;2023-05-07T07:37:34;17.98;;;12.95;;
56991;SDS011;42885;49.754;18.636;2023-05-07T07:40:24;14.43;;;11.20;;
56991;SDS011;42885;49.754;18.636;2023-05-07T07:43:14;16.35;;;11.40;;
56991;SDS011;42885;49.754;18.636;2023-05-07T07:46:04;16.12;;;11.70;;
56991;SDS011;42885;49.754;18.636;2023-05-07T07:48:54;29.87;;;21.57;;
56991;SDS011;42885;49.754;18.636;2023-05-07T07:51:44;35.67;;;29.10;;
56991;SDS011;42885;49.754;18.636;2023-05-07T07:54:33;18.35;;;13.35;;
56991;SDS011;42885;49.754;18.636;2023-05-07T07:57:23;18.05;;;13.08;;
56991;SDS011;42885;49.754;18.636;2023-05-07T08:00:12;16.52;;;12.68;;
56991;SDS011;42885;49.754;18.636;2023-05-07T08:03:09;16.55;;;12.23;;
56991;SDS011;42885;49.754;18.636;2023-05-07T08:06:00;20.37;;;13.13;;
56991;SDS011;42885;49.754;18.636;2023-05-07T08:08:49;21.65;;;14.95;;
56991;SDS011;42885;49.754;18.636;2023-05-07T08:11:38;23.95;;;17.02;;
56991;SDS011;42885;49.754;18.636;2023-05-07T08:14:27;29.75;;;20.10;;
56991;SDS011;42885;49.754;18.636;2023-05-07T08:17:17;29.83;;;19.87;;
56991;SDS011;42885;49.754;18.636;2023-05-07T08:20:07;33.10;;;21.48;;
56991;SDS011;42885;49.754;18.636;2023-05-07T08:22:56;33.18;;;21.48;;
56991;SDS011;42885;49.754;18.636;2023-05-07T08:25:46;33.43;;;22.30;;
56991;SDS011;42885;49.754;18.636;2023-05-07T08:28:37;32.17;;;22.40;;
56991;SDS011;42885;49.754;18.636;2023-05-07T08:31:28;33.85;;;22.15;;
56991;SDS011;42885;49.754;18.636;2023-05-07T08:34:18;33.08;;;22.65;;
56991;SDS011;42885;49.754;18.636;2023-05-07T08:37:07;45.92;;;31.68;;
56991;SDS011;42885;49.754;18.636;2023-05-07T08:39:57;32.42;;;23.25;;
56991;SDS011;42885;49.754;18.636;2023-05-07T08:42:48;36.37;;;24.30;;
56991;SDS011;42885;49.754;18.636;2023-05-07T08:45:39;30.00;;;23.87;;
56991;SDS011;42885;49.754;18.636;2023-05-07T08:48:32;34.58;;;24.35;;
56991;SDS011;42885;49.754;18.636;2023-05-07T08:51:25;35.40;;;24.43;;
56991;SDS011;42885;49.754;18.636;2023-05-07T08:54:16;30.88;;;25.05;;
56991;SDS011;42885;49.754;18.636;2023-05-07T08:57:07;32.20;;;25.82;;
56991;SDS011;42885;49.754;18.636;2023-05-07T08:59:57;32.05;;;25.90;;
56991;SDS011;42885;49.754;18.636;2023-05-07T09:02:46;34.30;;;26.17;;
56991;SDS011;42885;49.754;18.636;2023-05-07T09:05:35;29.60;;;24.65;;
56991;SDS011;42885;49.754;18.636;2023-05-07T09:08:26;32.67;;;25.90;;
56991;SDS011;42885;49.754;18.636;2023-05-07T09:11:19;31.20;;;23.70;;
56991;SDS011;42885;49.754;18.636;2023-05-07T09:14:14;27.10;;;21.62;;
56991;SDS011;42885;49.754;18.636;2023-05-07T09:17:04;25.17;;;20.90;;
56991;SDS011;42885;49.754;18.636;2023-05-07T09:19:53;20.48;;;18.23;;
56991;SDS011;42885;49.754;18.636;2023-05-07T09:22:43;23.27;;;18.82;;
56991;SDS011;42885;49.754;18.636;2023-05-07T09:25:34;20.23;;;16.82;;
56991;SDS011;42885;49.754;18.636;2023-05-07T09:28:25;17.80;;;15.90;;
56991;SDS011;42885;49.754;18.636;2023-05-07T09:31:16;15.32;;;12.88;;
56991;SDS011;42885;49.754;18.636;2023-05-07T09:34:05;15.45;;;13.72;;
56991;SDS011;42885;49.754;18.636;2023-05-07T09:36:55;15.53;;;13.22;;
56991;SDS011;42885;49.754;18.636;2023-05-07T09:39:46;16.73;;;13.37;;
56991;SDS011;42885;49.754;18.636;2023-05-07T09:42:38;15.10;;;13.43;;
56991;SDS011;42885;49.754;18.636;2023-05-07T09:45:28;15.13;;;13.22;;
56991;SDS011;42885;49.754;18.636;2023-05-07T09:48:18;16.23;;;12.73;;
56991;SDS011;42885;49.754;18.636;2023-05-07T09:54:19;17.98;;;15.18;;
56991;SDS011;42885;49.754;18.636;2023-05-07T09:57:10;17.80;;;15.20;;
56991;SDS011;42885;49.754;18.636;2023-05-07T10:00:02;15.70;;;12.98;;
56991;SDS011;42885;49.754;18.636;2023-05-07T10:02:54;13.58;;;12.18;;
56991;SDS011;42885;49.754;18.636;2023-05-07T10:05:46;15.55;;;12.07;;
56991;SDS011;42885;49.754;18.636;2023-05-07T10:08:38;15.30;;;10.72;;
56991;SDS011;42885;49.754;18.636;2023-05-07T10:11:28;10.53;;;9.43;;
56991;SDS011;42885;49.754;18.636;2023-05-07T10:14:22;10.28;;;9.08;;
56991;SDS011;42885;49.754;18.636;2023-05-07T10:17:11;10.23;;;9.15;;
56991;SDS011;42885;49.754;18.636;2023-05-07T10:20:02;12.20;;;10.23;;
56991;SDS011;42885;49.754;18.636;2023-05-07T10:22:52;12.90;;;9.70;;
56991;SDS011;42885;49.754;18.636;2023-05-07T10:25:45;12.13;;;9.45;;
56991;SDS011;42885;49.754;18.636;2023-05-07T10:28:38;13.50;;;9.08;;
56991;SDS011;42885;49.754;18.636;2023-05-07T10:34:42;11.15;;;9.18;;
56991;SDS011;42885;49.754;18.636;2023-05-07T10:37:33;14.18;;;12.70;;
56991;SDS011;42885;49.754;18.636;2023-05-07T10:40:22;15.63;;;12.80;;
56991;SDS011;42885;49.754;18.636;2023-05-07T10:43:13;15.50;;;13.37;;
56991;SDS011;42885;49.754;18.636;2023-05-07T10:46:14;14.13;;;12.53;;
56991;SDS011;42885;49.754;18.636;2023-05-07T10:52:12;11.63;;;10.17;;
56991;SDS011;42885;49.754;18.636;2023-05-07T10:58:31;11.28;;;9.70;;
56991;SDS011;42885;49.754;18.636;2023-05-07T11:01:14;12.03;;;10.82;;
56991;SDS011;42885;49.754;18.636;2023-05-07T11:04:12;12.40;;;10.58;;
56991;SDS011;42885;49.754;18.636;2023-05-07T11:10:04;11.70;;;9.13;;
56991;SDS011;42885;49.754;18.636;2023-05-07T11:12:56;13.35;;;10.00;;
56991;SDS011;42885;49.754;18.636;2023-05-07T11:15:47;14.23;;;11.70;;
56991;SDS011;42885;49.754;18.636;2023-05-07T11:18:51;18.63;;;13.13;;
56991;SDS011;42885;49.754;18.636;2023-05-07T11:21:43;15.30;;;11.97;;
56991;SDS011;42885;49.754;18.636;2023-05-07T11:24:42;17.73;;;13.37;;
56991;SDS011;42885;49.754;18.636;2023-05-07T11:27:33;17.12;;;12.68;;
56991;SDS011;42885;49.754;18.636;2023-05-07T11:30:23;18.30;;;13.00;;
56991;SDS011;42885;49.754;18.636;2023-05-07T11:33:13;16.52;;;13.40;;
56991;SDS011;42885;49.754;18.636;2023-05-07T11:36:05;18.35;;;14.43;;
56991;SDS011;42885;49.754;18.636;2023-05-07T11:38:58;18.42;;;14.70;;
56991;SDS011;42885;49.754;18.636;2023-05-07T11:41:47;18.85;;;14.45;;
56991;SDS011;42885;49.754;18.636;2023-05-07T11:44:44;19.87;;;15.57;;
56991;SDS011;42885;49.754;18.636;2023-05-07T11:47:33;20.35;;;16.20;;
56991;SDS011;42885;49.754;18.636;2023-05-07T11:50:23;26.37;;;17.45;;
56991;SDS011;42885;49.754;18.636;2023-05-07T11:53:12;22.22;;;17.42;;
56991;SDS011;42885;49.754;18.636;2023-05-07T11:56:05;21.25;;;17.30;;
56991;SDS011;42885;49.754;18.636;2023-05-07T11:58:59;24.35;;;19.67;;
56991;SDS011;42885;49.754;18.636;2023-05-07T12:01:48;26.50;;;21.05;;
56991;SDS011;42885;49.754;18.636;2023-05-07T12:04:37;23.02;;;17.80;;
56991;SDS011;42885;49.754;18.636;2023-05-07T12:07:26;22.22;;;17.85;;
56991;SDS011;42885;49.754;18.636;2023-05-07T12:10:15;22.20;;;16.62;;
56991;SDS011;42885;49.754;18.636;2023-05-07T12:13:13;23.18;;;17.95;;
56991;SDS011;42885;49.754;18.636;2023-05-07T12:16:02;17.25;;;15.30;;
56991;SDS011;42885;49.754;18.636;2023-05-07T12:18:55;11.90;;;9.85;;
56991;SDS011;42885;49.754;18.636;2023-05-07T12:21:45;12.53;;;10.00;;
56991;SDS011;42885;49.754;18.636;2023-05-07T12:24:46;11.98;;;9.82;;
56991;SDS011;42885;49.754;18.636;2023-05-07T12:27:40;9.47;;;8.47;;
56991;SDS011;42885;49.754;18.636;2023-05-07T12:30:29;10.45;;;9.30;;
56991;SDS011;42885;49.754;18.636;2023-05-07T12:33:23;9.60;;;8.60;;
56991;SDS011;42885;49.754;18.636;2023-05-07T12:36:13;10.28;;;8.83;;
56991;SDS011;42885;49.754;18.636;2023-05-07T12:39:04;13.25;;;10.00;;
56991;SDS011;42885;49.754;18.636;2023-05-07T12:41:55;15.40;;;12.58;;
56991;SDS011;42885;49.754;18.636;2023-05-07T12:44:46;15.80;;;13.83;;
56991;SDS011;42885;49.754;18.636;2023-05-07T12:47:36;17.20;;;13.53;;
56991;SDS011;42885;49.754;18.636;2023-05-07T12:50:24;16.52;;;14.07;;
56991;SDS011;42885;49.754;18.636;2023-05-07T12:53:13;20.25;;;14.73;;
56991;SDS011;42885;49.754;18.636;2023-05-07T12:56:02;19.98;;;15.85;;
56991;SDS011;42885;49.754;18.636;2023-05-07T12:58:56;19.12;;;16.57;;
56991;SDS011;42885;49.754;18.636;2023-05-07T13:01:46;20.88;;;16.12;;
56991;SDS011;42885;49.754;18.636;2023-05-07T13:04:35;20.47;;;16.43;;
56991;SDS011;42885;49.754;18.636;2023-05-07T13:07:25;19.62;;;15.23;;
56991;SDS011;42885;49.754;18.636;2023-05-07T13:10:14;20.17;;;17.00;;
56991;SDS011;42885;49.754;18.636;2023-05-07T13:13:03;22.50;;;18.40;;
56991;SDS011;42885;49.754;18.636;2023-05-07T13:15:52;24.23;;;19.90;;
56991;SDS011;42885;49.754;18.636;2023-05-07T13:18:41;25.10;;;20.13;;
56991;SDS011;42885;49.754;18.636;2023-05-07T13:21:32;24.12;;;18.92;;
56991;SDS011;42885;49.754;18.636;2023-05-07T13:24:22;22.75;;;18.73;;
56991;SDS011;42885;49.754;18.636;2023-05-07T13:27:12;22.25;;;18.45;;
56991;SDS011;42885;49.754;18.636;2023-05-07T13:30:02;22.87;;;17.60;;
56991;SDS011;42885;49.754;18.636;2023-05-07T13:32:54;20.27;;;16.67;;
56991;SDS011;42885;49.754;18.636;2023-05-07T13:35:44;19.25;;;16.57;;
56991;SDS011;42885;49.754;18.636;2023-05-07T13:38:33;21.45;;;17.77;;
56991;SDS011;42885;49.754;18.636;2023-05-07T13:41:22;19.87;;;17.73;;
56991;SDS011;42885;49.754;18.636;2023-05-07T13:44:11;19.57;;;16.73;;
56991;SDS011;42885;49.754;18.636;2023-05-07T13:47:01;22.70;;;17.95;;
56991;SDS011;42885;49.754;18.636;2023-05-07T13:49:50;23.77;;;18.73;;
56991;SDS011;42885;49.754;18.636;2023-05-07T13:52:47;18.15;;;14.83;;
56991;SDS011;42885;49.754;18.636;2023-05-07T13:55:36;18.57;;;15.83;;
56991;SDS011;42885;49.754;18.636;2023-05-07T13:58:26;20.27;;;17.20;;
56991;SDS011;42885;49.754;18.636;2023-05-07T14:01:16;18.03;;;16.03;;
56991;SDS011;42885;49.754;18.636;2023-05-07T14:04:05;18.30;;;15.35;;
56991;SDS011;42885;49.754;18.636;2023-05-07T14:06:55;20.92;;;17.87;;
56991;SDS011;42885;49.754;18.636;2023-05-07T14:09:44;21.33;;;18.57;;
56991;SDS011;42885;49.754;18.636;2023-05-07T14:12:34;20.75;;;18.00;;
56991;SDS011;42885;49.754;18.636;2023-05-07T14:15:23;22.13;;;18.23;;
56991;SDS011;42885;49.754;18.636;2023-05-07T14:18:12;24.87;;;19.87;;
56991;SDS011;42885;49.754;18.636;2023-05-07T14:21:01;22.82;;;19.20;;
56991;SDS011;42885;49.754;18.636;2023-05-07T14:23:51;23.15;;;18.20;;
56991;SDS011;42885;49.754;18.636;2023-05-07T14:26:40;26.02;;;18.40;;
56991;SDS011;42885;49.754;18.636;2023-05-07T14:29:29;20.80;;;17.67;;
56991;SDS011;42885;49.754;18.636;2023-05-07T14:32:19;24.90;;;19.98;;
56991;SDS011;42885;49.754;18.636;2023-05-07T14:35:08;24.90;;;19.82;;
56991;SDS011;42885;49.754;18.636;2023-05-07T14:37:57;23.18;;;18.45;;
56991;SDS011;42885;49.754;18.636;2023-05-07T14:40:47;23.20;;;20.27;;
56991;SDS011;42885;49.754;18.636;2023-05-07T14:43:37;25.57;;;18.92;;
56991;SDS011;42885;49.754;18.636;2023-05-07T14:46:26;24.90;;;19.87;;
56991;SDS011;42885;49.754;18.636;2023-05-07T14:49:15;22.52;;;19.73;;
56991;SDS011;42885;49.754;18.636;2023-05-07T14:52:04;28.77;;;20.57;;
56991;SDS011;42885;49.754;18.636;2023-05-07T14:54:54;21.47;;;17.00;;
56991;SDS011;42885;49.754;18.636;2023-05-07T14:57:43;19.10;;;15.03;;
56991;SDS011;42885;49.754;18.636;2023-05-07T15:00:33;19.10;;;15.30;;
56991;SDS011;42885;49.754;18.636;2023-05-07T15:03:23;16.32;;;13.00;;
56991;SDS011;42885;49.754;18.636;2023-05-07T15:06:13;17.05;;;13.88;;
56991;SDS011;42885;49.754;18.636;2023-05-07T15:09:01;18.92;;;14.18;;
56991;SDS011;42885;49.754;18.636;2023-05-07T15:11:50;16.20;;;13.68;;
56991;SDS011;42885;49.754;18.636;2023-05-07T15:14:39;16.02;;;13.22;;
56991;SDS011;42885;49.754;18.636;2023-05-07T15:17:29;16.73;;;13.50;;
56991;SDS011;42885;49.754;18.636;2023-05-07T15:20:19;16.10;;;11.43;;
56991;SDS011;42885;49.754;18.636;2023-05-07T15:23:08;15.85;;;11.25;;
56991;SDS011;42885;49.754;18.636;2023-05-07T15:25:59;11.80;;;9.80;;
56991;SDS011;42885;49.754;18.636;2023-05-07T15:28:49;14.68;;;10.30;;
56991;SDS011;42885;49.754;18.636;2023-05-07T15:31:39;13.48;;;10.93;;
56991;SDS011;42885;49.754;18.636;2023-05-07T15:34:29;15.00;;;11.70;;
56991;SDS011;42885;49.754;18.636;2023-05-07T15:37:19;16.40;;;12.23;;
56991;SDS011;42885;49.754;18.636;2023-05-07T15:40:09;18.12;;;14.40;;
56991;SDS011;42885;49.754;18.636;2023-05-07T15:42:58;15.98;;;12.47;;
56991;SDS011;42885;49.754;18.636;2023-05-07T15:45:47;17.03;;;13.27;;
56991;SDS011;42885;49.754;18.636;2023-05-07T15:48:37;15.13;;;11.30;;
56991;SDS011;42885;49.754;18.636;2023-05-07T15:51:26;14.87;;;12.25;;
56991;SDS011;42885;49.754;18.636;2023-05-07T15:54:16;14.87;;;10.53;;
56991;SDS011;42885;49.754;18.636;2023-05-07T15:57:07;12.90;;;8.70;;
56991;SDS011;42885;49.754;18.636;2023-05-07T15:59:57;11.35;;;8.45;;